createdAt,value
2018-05-14T00:00:06.191Z,87.70
2018-05-14T00:03:38.735Z,87.60
2018-05-14T00:07:11.184Z,87.50
2018-05-14T00:10:44.455Z,88.00
2018-05-14T00:14:17.704Z,87.00
2018-05-14T00:17:50.956Z,87.20
2018-05-14T00:21:23.480Z,87.20
2018-05-14T00:24:56.744Z,86.00
2018-05-14T00:28:29.420Z,85.80
2018-05-14T00:32:01.949Z,86.00
2018-05-14T00:35:35.214Z,86.00
2018-05-14T00:39:07.716Z,86.00
2018-05-14T00:42:40.205Z,86.50
2018-05-14T00:46:13.471Z,85.30
2018-05-14T00:49:45.957Z,86.00
2018-05-14T00:53:18.435Z,85.40
2018-05-14T00:56:50.922Z,85.00
2018-05-14T01:00:23.416Z,84.70
2018-05-14T01:03:55.908Z,84.80
2018-05-14T01:07:28.385Z,84.60
2018-05-14T01:11:00.884Z,84.50
2018-05-14T01:14:34.136Z,84.20
2018-05-14T01:18:06.613Z,84.20
2018-05-14T01:21:39.100Z,83.50
2018-05-14T01:25:11.592Z,83.20
2018-05-14T01:28:44.079Z,82.10
2018-05-14T01:32:16.551Z,81.70
2018-05-14T01:35:49.034Z,81.60
2018-05-14T01:39:21.522Z,81.60
2018-05-14T01:42:54.000Z,82.00
2018-05-14T01:46:26.483Z,82.20
2018-05-14T01:49:58.999Z,82.00
2018-05-14T01:53:32.248Z,82.40
2018-05-14T01:57:04.733Z,82.20
2018-05-14T02:00:37.226Z,82.50
2018-05-14T02:04:09.762Z,82.50
2018-05-14T02:07:42.304Z,82.80
2018-05-14T02:11:14.863Z,83.00
2018-05-14T02:14:47.374Z,83.00
2018-05-14T02:18:19.872Z,83.20
2018-05-14T02:21:52.352Z,83.20
2018-05-14T02:25:25.624Z,83.30
2018-05-14T02:28:58.117Z,83.10
2018-05-14T02:32:30.637Z,82.60
2018-05-14T02:36:03.881Z,82.20
2018-05-14T02:39:36.389Z,82.10
2018-05-14T02:43:08.880Z,82.10
2018-05-14T02:46:41.366Z,81.90
2018-05-14T02:50:13.870Z,81.60
2018-05-14T02:53:46.368Z,81.70
2018-05-14T02:57:18.865Z,81.70
2018-05-14T03:00:51.341Z,81.90
2018-05-14T03:04:23.863Z,82.00
2018-05-14T03:07:56.348Z,82.00
2018-05-14T03:11:28.837Z,82.30
2018-05-14T03:15:01.329Z,82.30
2018-05-14T03:18:34.583Z,82.60
2018-05-14T03:22:07.081Z,82.60
2018-05-14T03:25:39.568Z,82.50
2018-05-14T03:29:12.091Z,82.40
2018-05-14T03:32:44.580Z,82.10
2018-05-14T03:36:17.090Z,82.00
2018-05-14T03:39:49.567Z,82.00
2018-05-14T03:43:22.060Z,82.40
2018-05-14T03:46:54.543Z,82.60
2018-05-14T03:50:27.785Z,83.10
2018-05-14T03:54:01.044Z,83.50
2018-05-14T03:57:33.631Z,83.50
2018-05-14T04:05:18.676Z,83.00
2018-05-14T04:08:51.976Z,82.70
2018-05-14T04:12:25.223Z,82.40
2018-05-14T04:15:57.701Z,82.50
2018-05-14T04:19:30.185Z,82.30
2018-05-14T04:23:02.675Z,82.20
2018-05-14T04:26:35.164Z,82.30
2018-05-14T04:30:07.652Z,82.50
2018-05-14T04:33:40.146Z,82.40
2018-05-14T04:37:12.647Z,82.40
2018-05-14T04:40:45.893Z,82.40
2018-05-14T04:44:18.372Z,82.40
2018-05-14T04:47:50.862Z,82.50
2018-05-14T04:51:23.360Z,82.10
2018-05-14T04:54:55.832Z,81.70
2018-05-14T04:58:28.335Z,81.40
2018-05-14T05:02:00.821Z,81.10
2018-05-14T05:05:33.300Z,81.00
2018-05-14T05:09:05.770Z,80.90
2018-05-14T05:12:38.249Z,80.70
2018-05-14T05:16:10.733Z,80.60
2018-05-14T05:19:43.205Z,80.60
2018-05-14T05:23:15.720Z,80.60
2018-05-14T05:26:48.204Z,80.60
2018-05-14T05:30:20.688Z,80.50
2018-05-14T05:33:53.171Z,80.60
2018-05-14T05:37:25.657Z,80.30
2018-05-14T05:40:58.136Z,80.40
2018-05-14T05:44:30.622Z,79.90
2018-05-14T05:48:03.875Z,80.10
2018-05-14T05:51:36.360Z,79.40
2018-05-14T05:55:08.848Z,79.30
2018-05-14T05:58:42.085Z,79.00
2018-05-14T06:02:15.329Z,79.10
2018-05-14T06:05:47.816Z,79.10
2018-05-14T06:09:20.303Z,79.40
2018-05-14T06:12:52.793Z,78.70
2018-05-14T06:16:25.277Z,78.00
2018-05-14T06:19:57.772Z,77.40
2018-05-14T06:23:30.252Z,75.50
2018-05-14T06:27:02.849Z,74.10
2018-05-14T06:30:35.332Z,70.90
2018-05-14T06:34:07.820Z,70.40
2018-05-14T06:37:41.089Z,67.30
2018-05-14T06:41:13.595Z,67.20
2018-05-14T06:44:46.081Z,67.20
2018-05-14T06:48:18.767Z,67.50
2018-05-14T06:51:51.048Z,66.10
2018-05-14T06:55:23.530Z,66.20
2018-05-14T06:58:56.008Z,65.30
2018-05-14T07:02:28.488Z,64.80
2018-05-14T07:06:00.983Z,63.20
2018-05-14T07:09:33.457Z,62.40
2018-05-14T07:13:05.933Z,62.60
2018-05-14T07:16:38.411Z,63.20
2018-05-14T07:20:10.903Z,62.80
2018-05-14T07:23:43.385Z,63.00
2018-05-14T07:27:15.860Z,62.20
2018-05-14T07:30:48.369Z,62.70
2018-05-14T07:34:20.843Z,62.10
2018-05-14T07:37:54.090Z,61.80
2018-05-14T07:41:26.577Z,61.80
2018-05-14T07:44:59.055Z,61.70
2018-05-14T07:48:31.548Z,61.80
2018-05-14T07:52:04.040Z,60.80
2018-05-14T07:55:36.520Z,60.40
2018-05-14T07:59:09.102Z,59.40
2018-05-14T08:02:42.281Z,57.90
2018-05-14T08:06:14.787Z,57.80
2018-05-14T08:09:47.268Z,57.80
2018-05-14T08:13:20.557Z,56.40
2018-05-14T08:16:53.015Z,56.30
2018-05-14T08:20:26.640Z,56.40
2018-05-14T08:23:59.133Z,55.60
2018-05-14T08:27:31.613Z,55.30
2018-05-14T08:31:04.088Z,55.30
2018-05-14T08:34:36.566Z,55.60
2018-05-14T08:38:09.084Z,54.90
2018-05-14T08:41:41.916Z,54.60
2018-05-14T08:45:14.395Z,54.50
2018-05-14T08:48:47.967Z,54.30
2018-05-14T08:52:20.397Z,54.10
2018-05-14T08:55:52.876Z,53.90
2018-05-14T08:59:25.359Z,53.50
2018-05-14T09:02:57.856Z,53.60
2018-05-14T09:06:30.335Z,53.50
2018-05-14T09:10:02.809Z,53.20
2018-05-14T09:13:35.299Z,53.30
2018-05-14T09:17:07.777Z,52.20
2018-05-14T09:20:40.266Z,50.80
2018-05-14T09:24:12.748Z,50.80
2018-05-14T09:27:45.242Z,50.00
2018-05-14T09:31:17.738Z,48.90
2018-05-14T09:34:50.208Z,49.30
2018-05-14T09:38:22.690Z,47.90
2018-05-14T09:41:55.178Z,47.10
2018-05-14T09:45:27.649Z,45.60
2018-05-14T09:49:00.136Z,43.40
2018-05-14T09:52:32.613Z,44.10
2018-05-14T09:56:05.172Z,43.00
2018-05-14T09:59:37.581Z,42.70
2018-05-14T10:03:10.076Z,43.10
2018-05-14T10:06:42.556Z,42.60
2018-05-14T10:10:15.040Z,43.10
2018-05-14T10:13:47.528Z,42.50
2018-05-14T10:17:20.006Z,43.10
2018-05-14T10:20:52.492Z,42.80
2018-05-14T10:24:24.980Z,42.50
2018-05-14T10:27:57.448Z,42.70
2018-05-14T10:31:29.927Z,42.80
2018-05-14T10:35:02.407Z,43.10
2018-05-14T10:38:34.888Z,43.20
2018-05-14T10:42:07.368Z,43.80
2018-05-14T10:45:39.848Z,43.40
2018-05-14T10:49:12.334Z,43.20
2018-05-14T10:52:44.818Z,42.90
2018-05-14T10:56:17.291Z,43.20
2018-05-14T10:59:49.765Z,43.20
2018-05-14T11:03:22.241Z,41.00
2018-05-14T11:06:54.732Z,40.50
2018-05-14T11:10:27.210Z,40.10
2018-05-14T11:13:59.680Z,39.20
2018-05-14T11:17:32.152Z,39.00
2018-05-14T11:21:04.639Z,39.50
2018-05-14T11:24:37.112Z,39.00
2018-05-14T11:28:09.584Z,38.80
2018-05-14T11:31:42.063Z,39.50
2018-05-14T11:35:14.552Z,38.90
2018-05-14T11:38:47.036Z,39.20
2018-05-14T11:42:19.507Z,38.50
2018-05-14T11:45:52.006Z,38.20
2018-05-14T11:49:24.493Z,38.40
2018-05-14T11:52:56.963Z,38.70
2018-05-14T11:56:29.440Z,39.10
2018-05-14T12:00:01.917Z,38.70
2018-05-14T12:03:34.399Z,38.80
2018-05-14T12:07:06.880Z,39.20
2018-05-14T12:10:39.363Z,38.60
2018-05-14T12:14:11.845Z,38.30
2018-05-14T12:17:44.312Z,38.30
2018-05-14T12:21:17.561Z,37.90
2018-05-14T12:24:50.040Z,37.80
2018-05-14T12:28:22.528Z,37.80
2018-05-14T12:31:55.013Z,37.50
2018-05-14T12:35:27.491Z,37.50
2018-05-14T12:38:59.973Z,36.80
2018-05-14T12:42:32.442Z,36.10
2018-05-14T12:46:05.041Z,35.20
2018-05-14T12:49:37.436Z,35.20
2018-05-14T12:53:09.925Z,34.90
2018-05-14T12:56:42.399Z,34.30
2018-05-14T13:00:14.876Z,33.40
2018-05-14T13:03:47.352Z,33.00
2018-05-14T13:07:19.816Z,33.50
2018-05-14T13:10:52.301Z,32.80
2018-05-14T13:14:24.779Z,31.70
2018-05-14T13:17:57.293Z,29.80
2018-05-14T13:21:29.773Z,29.40
2018-05-14T13:25:02.277Z,28.30
2018-05-14T13:28:35.541Z,28.00
2018-05-14T13:32:08.044Z,27.90
2018-05-14T13:35:40.506Z,28.00
2018-05-14T13:39:12.989Z,27.80
2018-05-14T13:42:45.478Z,27.20
2018-05-14T13:46:18.031Z,27.10
2018-05-14T13:49:50.449Z,27.40
2018-05-14T13:53:22.920Z,26.90
2018-05-14T13:56:55.388Z,25.60
2018-05-14T14:00:27.894Z,25.60
2018-05-14T14:04:00.384Z,24.70
2018-05-14T14:07:32.863Z,24.40
2018-05-14T14:11:05.337Z,24.20
2018-05-14T14:14:37.853Z,23.00
2018-05-14T14:18:10.336Z,23.00
2018-05-14T14:21:42.816Z,24.00
2018-05-14T14:25:15.289Z,23.30
2018-05-14T14:28:47.764Z,23.20
2018-05-14T14:32:21.017Z,23.50
2018-05-14T14:35:53.581Z,23.40
2018-05-14T14:39:25.983Z,23.70
2018-05-14T14:42:58.584Z,23.80
2018-05-14T14:46:31.162Z,24.20
2018-05-14T14:50:03.817Z,24.30
2018-05-14T14:53:36.365Z,24.80
2018-05-14T14:57:08.801Z,24.60
2018-05-14T15:00:41.280Z,28.30
2018-05-14T15:04:13.761Z,32.20
2018-05-14T15:07:46.256Z,34.40
2018-05-14T15:11:18.741Z,34.60
2018-05-14T15:14:51.268Z,34.60
2018-05-14T15:18:24.509Z,36.10
2018-05-14T15:21:56.998Z,36.10
2018-05-14T15:25:29.476Z,37.20
2018-05-14T15:29:01.989Z,38.40
2018-05-14T15:32:34.502Z,39.30
2018-05-14T15:36:06.994Z,39.60
2018-05-14T15:39:39.474Z,40.10
2018-05-14T15:43:11.986Z,40.90
2018-05-14T15:46:44.465Z,41.10
2018-05-14T15:50:16.944Z,41.00
2018-05-14T15:53:49.460Z,42.10
2018-05-14T15:57:21.940Z,42.60
2018-05-14T16:00:54.432Z,42.70
2018-05-14T16:04:26.900Z,42.60
2018-05-14T16:07:59.388Z,42.20
2018-05-14T16:11:31.891Z,41.90
2018-05-14T16:15:05.156Z,40.30
2018-05-14T16:18:37.649Z,40.30
2018-05-14T16:22:10.464Z,40.30
2018-05-14T16:25:43.743Z,42.20
2018-05-14T16:29:16.223Z,42.20
2018-05-14T16:32:48.727Z,42.00
2018-05-14T16:36:21.993Z,44.30
2018-05-14T16:39:54.471Z,44.30
2018-05-14T16:43:27.739Z,44.80
2018-05-14T16:47:00.223Z,44.90
2018-05-14T16:50:32.704Z,45.20
2018-05-14T16:54:05.201Z,45.60
2018-05-14T16:57:37.788Z,45.70
2018-05-14T17:01:10.988Z,46.50
2018-05-14T17:04:43.505Z,46.50
2018-05-14T17:08:16.752Z,46.70
2018-05-14T17:11:49.251Z,47.20
2018-05-14T17:15:21.832Z,47.30
2018-05-14T17:18:54.310Z,47.50
2018-05-14T17:22:26.781Z,47.80
2018-05-14T17:25:59.259Z,48.00
2018-05-14T17:29:38.359Z,48.00
2018-05-14T17:33:11.604Z,48.10
2018-05-14T17:36:44.089Z,48.00
2018-05-14T17:40:16.612Z,48.00
2018-05-14T17:43:49.459Z,48.50
2018-05-14T17:47:21.949Z,48.70
2018-05-14T17:50:54.432Z,49.10
2018-05-14T17:54:26.914Z,49.10
2018-05-14T17:57:59.383Z,49.10
2018-05-14T18:01:31.868Z,49.20
2018-05-14T18:05:04.363Z,50.00
2018-05-14T18:08:36.841Z,50.50
2018-05-14T18:12:09.396Z,43.50
2018-05-14T18:15:41.876Z,41.50
2018-05-14T18:19:14.362Z,41.30
2018-05-14T18:22:46.844Z,41.40
2018-05-14T18:26:19.322Z,42.10
2018-05-14T18:29:54.634Z,46.20
2018-05-14T18:33:27.129Z,50.10
2018-05-14T18:37:00.368Z,72.10
2018-05-14T18:40:32.855Z,71.90
2018-05-14T18:44:11.179Z,74.70
2018-05-14T18:47:43.667Z,77.00
2018-05-14T18:51:16.151Z,78.30
2018-05-14T18:54:48.631Z,79.40
2018-05-14T18:58:21.119Z,78.50
2018-05-14T19:01:53.610Z,79.30
2018-05-14T19:13:52.402Z,78.80
2018-05-14T20:50:53.083Z,74.50
2018-05-14T20:54:25.585Z,72.80
2018-05-14T20:57:58.462Z,72.70
2018-05-14T21:01:30.986Z,72.30
2018-05-14T21:05:03.478Z,72.20
2018-05-14T21:08:35.973Z,71.80
2018-05-14T21:12:09.296Z,71.70
2018-05-14T21:15:42.171Z,71.60
2018-05-14T21:19:15.457Z,70.30
2018-05-14T21:22:47.950Z,70.30
2018-05-14T21:26:21.284Z,68.10
2018-05-14T21:29:53.761Z,68.10
2018-05-14T21:33:26.256Z,67.70
2018-05-14T21:36:58.746Z,67.50
2018-05-14T21:40:31.253Z,66.70
2018-05-14T21:44:03.765Z,66.50
2018-05-14T21:47:37.023Z,65.30
2018-05-14T21:51:09.770Z,65.30
2018-05-14T21:54:42.264Z,65.10
2018-05-14T21:58:14.758Z,65.10
2018-05-14T22:01:47.250Z,65.00
2018-05-14T22:05:19.737Z,65.00
2018-05-14T22:08:52.233Z,65.10
2018-05-14T22:12:24.723Z,65.40
2018-05-14T22:15:57.237Z,65.20
2018-05-14T22:19:30.484Z,65.10
2018-05-14T22:23:03.046Z,65.10
2018-05-14T22:26:35.545Z,65.10
2018-05-14T22:30:08.036Z,65.10
2018-05-14T22:33:40.522Z,65.30
2018-05-14T22:37:13.008Z,64.80
2018-05-14T22:40:45.492Z,64.40
2018-05-14T22:44:18.040Z,64.30
2018-05-14T22:47:50.530Z,64.10
2018-05-14T22:51:23.028Z,63.60
2018-05-14T22:54:55.623Z,63.50
2018-05-14T22:58:28.100Z,63.20
2018-05-14T23:02:00.598Z,63.30
2018-05-14T23:05:33.099Z,63.50
2018-05-14T23:09:06.380Z,63.90
2018-05-14T23:12:38.855Z,63.90
2018-05-14T23:16:11.348Z,63.90
2018-05-14T23:19:43.843Z,63.60
2018-05-14T23:23:17.096Z,63.70
2018-05-14T23:26:49.592Z,63.60
2018-05-14T23:30:22.080Z,63.60
2018-05-14T23:33:54.570Z,63.40
2018-05-14T23:37:27.059Z,63.40
2018-05-14T23:40:59.552Z,63.60
2018-05-14T23:44:32.092Z,63.80
2018-05-14T23:48:05.337Z,63.90
2018-05-14T23:51:38.601Z,64.40
2018-05-14T23:55:11.101Z,64.00
2018-05-14T23:58:45.108Z,64.00
